createdAt,value
2019-02-20T00:02:06.575Z,1.28
2019-02-20T00:04:39.231Z,1.31
2019-02-20T00:07:11.895Z,1.19
2019-02-20T00:09:44.597Z,1.16
2019-02-20T00:12:17.308Z,1.21
2019-02-20T00:14:49.877Z,1.13
2019-02-20T00:17:22.581Z,1.13
2019-02-20T00:19:55.167Z,1.04
2019-02-20T00:22:27.761Z,0.88
2019-02-20T00:25:00.438Z,1.01
2019-02-20T00:27:33.120Z,1.09
2019-02-20T00:30:06.520Z,1.05
2019-02-20T00:32:39.197Z,0.97
2019-02-20T00:35:12.233Z,0.95
2019-02-20T00:37:44.933Z,0.79
2019-02-20T00:40:17.815Z,0.77
2019-02-20T00:42:50.479Z,0.62
2019-02-20T00:45:47.713Z,0.57
2019-02-20T00:48:30.994Z,0.60
2019-02-20T00:51:11.641Z,0.68
2019-02-20T00:53:56.689Z,0.63
2019-02-20T00:56:29.312Z,0.77
2019-02-20T00:59:02.043Z,0.86
2019-02-20T01:01:34.642Z,0.95
2019-02-20T01:04:07.323Z,1.02
2019-02-20T01:06:40.121Z,0.96
2019-02-20T01:09:12.740Z,0.77
2019-02-20T01:11:45.370Z,0.61
2019-02-20T01:14:18.062Z,0.49
2019-02-20T01:16:50.610Z,0.36
2019-02-20T01:19:23.299Z,0.36
2019-02-20T01:21:55.969Z,0.43
2019-02-20T01:24:28.856Z,0.66
2019-02-20T01:27:01.416Z,0.72
2019-02-20T01:29:34.037Z,0.67
2019-02-20T01:32:06.620Z,0.43
2019-02-20T01:34:39.309Z,0.30
2019-02-20T01:37:11.962Z,0.11
2019-02-20T01:39:44.775Z,0.28
2019-02-20T01:42:17.389Z,0.51
2019-02-20T01:44:50.010Z,0.62
2019-02-20T01:47:22.640Z,0.57
2019-02-20T01:49:55.251Z,0.66
2019-02-20T01:52:27.911Z,0.81
2019-02-20T01:55:00.618Z,0.89
2019-02-20T01:57:33.267Z,0.83
2019-02-20T02:00:08.210Z,0.63
2019-02-20T02:02:40.930Z,0.44
2019-02-20T02:05:15.769Z,0.27
2019-02-20T02:07:48.094Z,0.16
2019-02-20T02:10:20.710Z,0.23
2019-02-20T02:12:53.392Z,0.27
2019-02-20T02:15:26.000Z,0.32
2019-02-20T02:17:58.628Z,0.25
2019-02-20T02:20:31.310Z,0.38
2019-02-20T02:23:03.222Z,0.49
2019-02-20T02:25:35.812Z,0.59
2019-02-20T02:28:08.461Z,0.49
2019-02-20T02:30:41.292Z,0.32
2019-02-20T02:33:13.986Z,0.15
2019-02-20T02:35:46.619Z,0.00
2019-02-20T02:38:19.282Z,-0.06
2019-02-20T02:40:51.909Z,-0.01
2019-02-20T02:43:24.483Z,-0.08
2019-02-20T02:45:57.433Z,-0.14
2019-02-20T02:48:30.129Z,-0.15
2019-02-20T02:51:02.806Z,-0.18
2019-02-20T02:53:35.492Z,-0.22
2019-02-20T02:56:08.240Z,-0.16
2019-02-20T02:58:40.952Z,-0.06
2019-02-20T03:01:13.618Z,0.06
2019-02-20T03:03:46.200Z,0.09
2019-02-20T03:06:18.853Z,0.19
2019-02-20T03:08:51.528Z,0.28
2019-02-20T03:11:24.260Z,0.17
2019-02-20T03:13:56.847Z,-0.14
2019-02-20T03:16:29.542Z,-0.45
2019-02-20T03:19:02.248Z,-0.54
2019-02-20T03:21:34.900Z,-0.48
2019-02-20T03:24:07.495Z,-0.37
2019-02-20T03:26:40.170Z,0.00
2019-02-20T03:29:12.766Z,-0.44
2019-02-20T03:31:45.369Z,-0.51
2019-02-20T03:34:18.018Z,-0.33
2019-02-20T03:36:50.653Z,-0.31
2019-02-20T03:39:23.396Z,-0.57
2019-02-20T03:41:56.113Z,-0.66
2019-02-20T03:44:28.686Z,-0.71
2019-02-20T03:47:01.334Z,-0.69
2019-02-20T03:49:33.965Z,-0.69
2019-02-20T03:52:06.633Z,-0.68
2019-02-20T03:54:39.302Z,-0.70
2019-02-20T03:57:11.958Z,-0.54
2019-02-20T03:59:44.641Z,-0.47
2019-02-20T04:02:17.278Z,-0.55
2019-02-20T04:04:49.843Z,-0.61
2019-02-20T04:07:22.625Z,-0.70
2019-02-20T04:09:55.335Z,-0.68
2019-02-20T04:12:27.958Z,-0.63
2019-02-20T04:15:00.626Z,-0.66
2019-02-20T04:17:33.347Z,-0.65
2019-02-20T04:20:06.949Z,-0.65
2019-02-20T04:22:39.648Z,-0.63
2019-02-20T04:25:12.224Z,-0.36
2019-02-20T04:27:45.005Z,-0.22
2019-02-20T04:30:17.706Z,-0.08
2019-02-20T04:32:50.308Z,-0.21
2019-02-20T04:35:22.870Z,-0.47
2019-02-20T04:37:55.554Z,-0.76
2019-02-20T04:40:28.791Z,-0.89
2019-02-20T04:43:01.485Z,-0.82
2019-02-20T04:45:34.174Z,-0.74
2019-02-20T04:48:06.936Z,-0.44
2019-02-20T04:50:39.596Z,-0.46
2019-02-20T04:53:12.314Z,-0.51
2019-02-20T04:55:44.283Z,-0.61
2019-02-20T04:58:21.797Z,-0.71
2019-02-20T05:00:54.370Z,-0.78
2019-02-20T05:03:27.168Z,-0.78
2019-02-20T05:05:59.840Z,-0.72
2019-02-20T05:08:32.450Z,-0.66
2019-02-20T05:11:05.073Z,-0.60
2019-02-20T05:13:37.704Z,-0.71
2019-02-20T05:16:10.383Z,-0.85
2019-02-20T05:18:43.090Z,-0.72
2019-02-20T05:21:15.668Z,-0.47
2019-02-20T05:23:48.316Z,-0.44
2019-02-20T05:26:21.023Z,-0.48
2019-02-20T05:28:53.658Z,-0.52
2019-02-20T05:31:26.271Z,-0.79
2019-02-20T05:33:58.966Z,-1.04
2019-02-20T05:36:31.562Z,-1.07
2019-02-20T05:39:05.000Z,-0.98
2019-02-20T05:41:37.651Z,-0.97
2019-02-20T05:44:10.394Z,-0.95
2019-02-20T05:46:43.041Z,-0.85
2019-02-20T05:49:15.812Z,-0.71
2019-02-20T05:51:48.604Z,-0.78
2019-02-20T05:54:21.199Z,-1.01
2019-02-20T05:56:53.789Z,-1.13
2019-02-20T05:59:26.447Z,-1.17
2019-02-20T06:01:59.101Z,-1.09
2019-02-20T06:04:31.772Z,-0.96
2019-02-20T06:07:04.472Z,-1.01
2019-02-20T06:09:37.113Z,-1.01
2019-02-20T06:12:09.740Z,-1.15
2019-02-20T06:14:42.527Z,-1.10
2019-02-20T06:17:15.212Z,-1.05
2019-02-20T06:19:47.866Z,-1.19
2019-02-20T06:22:20.508Z,-1.21
2019-02-20T06:24:54.510Z,-1.25
2019-02-20T06:27:27.158Z,-1.23
2019-02-20T06:29:59.754Z,-1.01
2019-02-20T06:32:32.560Z,-0.99
2019-02-20T06:35:05.466Z,-0.86
2019-02-20T06:37:38.127Z,-0.76
2019-02-20T06:40:10.844Z,-1.09
2019-02-20T06:42:43.469Z,-1.09
2019-02-20T06:45:16.220Z,-1.05
2019-02-20T06:47:48.814Z,-1.00
2019-02-20T06:50:21.505Z,-0.98
2019-02-20T06:52:54.069Z,-0.99
2019-02-20T06:55:26.716Z,-0.96
2019-02-20T06:57:59.363Z,-0.87
2019-02-20T07:00:32.201Z,-0.74
2019-02-20T07:03:04.754Z,-0.68
2019-02-20T07:05:43.105Z,-0.64
2019-02-20T07:09:24.964Z,-0.57
2019-02-20T07:12:40.738Z,-0.53
2019-02-20T07:15:50.475Z,-0.41
2019-02-20T07:19:53.085Z,-0.30
2019-02-20T07:23:22.035Z,-0.17
2019-02-20T07:27:14.182Z,-0.31
2019-02-20T07:29:45.266Z,-0.46
2019-02-20T07:32:19.087Z,-0.44
2019-02-20T07:34:51.772Z,-0.37
2019-02-20T07:37:24.377Z,-0.31
2019-02-20T07:39:57.479Z,-0.17
2019-02-20T07:42:30.274Z,-0.14
2019-02-20T07:45:03.041Z,0.07
2019-02-20T07:47:35.699Z,0.28
2019-02-20T07:50:10.324Z,0.53
2019-02-20T07:52:42.882Z,0.88
2019-02-20T07:55:15.714Z,1.17
2019-02-20T07:57:48.491Z,1.48
2019-02-20T08:00:21.332Z,1.98
2019-02-20T08:02:53.982Z,2.19
2019-02-20T08:05:26.650Z,2.74
2019-02-20T08:07:59.295Z,3.11
2019-02-20T08:10:31.941Z,4.58
2019-02-20T08:13:04.707Z,5.25
2019-02-20T08:15:37.672Z,5.69
2019-02-20T08:18:10.312Z,6.16
2019-02-20T08:20:42.958Z,6.16
2019-02-20T08:23:15.650Z,5.45
2019-02-20T08:25:48.284Z,6.16
2019-02-20T08:28:21.032Z,7.49
2019-02-20T08:30:53.714Z,7.83
2019-02-20T08:33:28.553Z,8.62
2019-02-20T08:36:03.993Z,8.85
2019-02-20T08:38:36.712Z,9.62
2019-02-20T08:41:09.307Z,9.21
2019-02-20T08:43:42.010Z,8.93
2019-02-20T08:46:14.695Z,9.18
2019-02-20T08:48:47.478Z,9.46
2019-02-20T08:51:20.233Z,8.84
2019-02-20T08:53:52.934Z,9.08
2019-02-20T08:56:25.565Z,9.88
2019-02-20T08:58:57.751Z,9.58
2019-02-20T09:01:30.338Z,10.21
2019-02-20T09:04:03.161Z,10.05
2019-02-20T09:06:35.972Z,10.61
2019-02-20T09:09:08.610Z,10.96
2019-02-20T09:11:41.269Z,11.14
2019-02-20T09:14:14.010Z,10.65
2019-02-20T09:16:46.633Z,10.78
2019-02-20T09:19:19.332Z,11.78
2019-02-20T09:21:51.983Z,12.21
2019-02-20T09:24:24.622Z,12.05
2019-02-20T09:26:57.406Z,11.45
2019-02-20T09:29:30.365Z,12.02
2019-02-20T09:32:03.553Z,11.33
2019-02-20T09:34:36.144Z,11.48
2019-02-20T09:37:08.880Z,11.81
2019-02-20T09:39:43.194Z,12.98
2019-02-20T09:42:21.304Z,12.80
2019-02-20T09:47:38.810Z,12.87
2019-02-20T09:50:11.600Z,12.07
2019-02-20T09:52:51.973Z,12.34
2019-02-20T09:55:18.656Z,12.36
2019-02-20T09:57:51.291Z,12.74
2019-02-20T10:00:23.976Z,12.92
2019-02-20T10:02:56.637Z,13.05
2019-02-20T10:05:29.327Z,13.37
2019-02-20T10:08:02.127Z,13.36
2019-02-20T10:10:34.877Z,14.10
2019-02-20T10:13:09.544Z,15.24
2019-02-20T10:15:42.065Z,14.74
2019-02-20T10:18:14.941Z,14.32
2019-02-20T10:20:47.727Z,14.23
2019-02-20T10:23:20.402Z,15.23
2019-02-20T10:26:00.552Z,15.56
2019-02-20T10:28:27.501Z,15.39
2019-02-20T10:31:00.246Z,15.00
2019-02-20T10:33:33.002Z,15.25
2019-02-20T10:36:05.675Z,15.75
2019-02-20T10:38:38.759Z,16.43
2019-02-20T10:41:10.587Z,16.24
2019-02-20T10:43:43.474Z,16.58
2019-02-20T10:46:16.193Z,16.25
2019-02-20T10:48:48.219Z,16.25
2019-02-20T10:51:20.850Z,16.17
2019-02-20T10:53:53.588Z,15.66
2019-02-20T10:56:26.324Z,16.30
2019-02-20T10:58:59.089Z,16.31
2019-02-20T11:01:31.779Z,16.73
2019-02-20T11:04:04.543Z,17.16
2019-02-20T11:06:37.300Z,16.19
2019-02-20T11:09:10.177Z,16.70
2019-02-20T11:11:42.927Z,16.59
2019-02-20T11:14:15.641Z,16.40
2019-02-20T11:16:47.839Z,16.85
2019-02-20T11:19:20.603Z,17.38
2019-02-20T11:21:53.427Z,16.93
2019-02-20T11:24:26.158Z,16.94
2019-02-20T11:26:58.874Z,16.52
2019-02-20T11:29:31.559Z,16.96
2019-02-20T11:32:04.306Z,17.58
2019-02-20T11:34:36.966Z,17.69
2019-02-20T11:37:09.638Z,18.32
2019-02-20T11:39:42.344Z,17.78
2019-02-20T11:42:15.192Z,18.00
2019-02-20T11:44:47.912Z,18.54
2019-02-20T11:47:20.570Z,17.69
2019-02-20T11:49:53.295Z,18.00
2019-02-20T11:52:25.963Z,17.54
2019-02-20T11:54:58.839Z,17.92
2019-02-20T11:57:31.497Z,17.73
2019-02-20T12:00:04.910Z,17.71
2019-02-20T12:02:42.164Z,17.73
2019-02-20T12:05:12.188Z,18.10
2019-02-20T12:07:44.913Z,18.30
2019-02-20T12:10:18.653Z,18.99
2019-02-20T12:12:51.548Z,19.28
2019-02-20T12:15:26.737Z,19.59
2019-02-20T12:17:59.474Z,19.44
2019-02-20T12:20:32.441Z,18.95
2019-02-20T12:23:05.133Z,18.83
2019-02-20T12:25:37.789Z,18.60
2019-02-20T12:28:10.579Z,18.14
2019-02-20T12:30:43.376Z,18.58
2019-02-20T12:33:16.552Z,19.14
2019-02-20T12:35:48.505Z,18.94
2019-02-20T12:38:21.408Z,18.68
2019-02-20T12:40:54.135Z,19.11
2019-02-20T12:43:26.932Z,19.35
2019-02-20T12:45:59.897Z,19.21
2019-02-20T12:48:32.710Z,18.74
2019-02-20T12:51:05.456Z,18.97
2019-02-20T12:53:38.216Z,19.87
2019-02-20T12:56:11.126Z,19.69
2019-02-20T12:58:43.871Z,19.26
2019-02-20T13:01:16.789Z,19.44
2019-02-20T13:03:50.798Z,19.74
2019-02-20T13:06:23.650Z,19.78
2019-02-20T13:08:56.346Z,19.40
2019-02-20T13:11:29.046Z,20.19
2019-02-20T13:14:01.833Z,19.89
2019-02-20T13:16:34.645Z,19.54
2019-02-20T13:19:07.558Z,19.84
2019-02-20T13:21:40.358Z,19.56
2019-02-20T13:24:13.121Z,19.46
2019-02-20T13:26:52.878Z,19.58
2019-02-20T13:29:20.293Z,20.30
2019-02-20T13:31:53.057Z,20.76
2019-02-20T13:34:25.730Z,20.79
2019-02-20T13:36:58.490Z,19.51
2019-02-20T13:39:31.135Z,19.86
2019-02-20T13:42:03.795Z,18.88
2019-02-20T13:44:36.541Z,19.91
2019-02-20T13:47:09.426Z,19.23
2019-02-20T13:49:42.060Z,19.24
2019-02-20T13:52:14.838Z,18.23
2019-02-20T13:54:47.476Z,18.48
2019-02-20T13:57:20.762Z,17.88
2019-02-20T13:59:53.453Z,18.56
2019-02-20T14:02:26.171Z,17.53
2019-02-20T14:04:58.881Z,18.36
2019-02-20T14:07:31.633Z,17.97
2019-02-20T14:10:05.043Z,17.71
2019-02-20T14:12:37.731Z,17.12
2019-02-20T14:15:11.689Z,16.01
2019-02-20T14:17:44.498Z,15.87
2019-02-20T14:20:17.332Z,15.94
2019-02-20T14:22:50.057Z,15.85
2019-02-20T14:25:22.798Z,15.63
2019-02-20T14:27:55.592Z,15.25
2019-02-20T14:30:28.353Z,14.78
2019-02-20T14:33:01.287Z,14.36
2019-02-20T14:35:34.057Z,14.09
2019-02-20T14:38:06.914Z,14.14
2019-02-20T14:40:42.075Z,13.88
2019-02-20T14:43:15.137Z,13.32
2019-02-20T14:45:48.259Z,13.23
2019-02-20T14:48:20.856Z,13.34
2019-02-20T14:50:53.607Z,13.36
2019-02-20T14:53:27.124Z,13.26
2019-02-20T14:55:59.864Z,13.27
2019-02-20T14:58:32.506Z,13.45
2019-02-20T15:01:06.124Z,13.26
2019-02-20T15:03:38.822Z,13.10
2019-02-20T15:06:11.486Z,13.11
2019-02-20T15:08:44.247Z,13.00
2019-02-20T15:11:16.887Z,13.01
2019-02-20T15:13:49.527Z,12.95
2019-02-20T15:16:22.160Z,12.74
2019-02-20T15:18:54.982Z,12.89
2019-02-20T15:21:28.040Z,13.06
2019-02-20T15:24:02.488Z,13.00
2019-02-20T15:26:35.221Z,12.74
2019-02-20T15:29:07.960Z,12.45
2019-02-20T15:31:40.656Z,12.06
2019-02-20T15:34:13.424Z,11.85
2019-02-20T15:36:46.010Z,11.70
2019-02-20T15:39:18.586Z,11.55
2019-02-20T15:41:51.360Z,11.53
2019-02-20T15:44:23.937Z,11.36
2019-02-20T15:46:56.718Z,11.22
2019-02-20T15:49:29.292Z,11.17
2019-02-20T15:52:02.011Z,11.08
2019-02-20T15:54:34.721Z,11.01
2019-02-20T15:57:07.459Z,10.97
2019-02-20T15:59:40.242Z,10.99
2019-02-20T16:02:12.905Z,11.03
2019-02-20T16:04:45.617Z,11.11
2019-02-20T16:07:18.377Z,11.02
2019-02-20T16:09:51.472Z,10.99
2019-02-20T16:12:24.130Z,10.97
2019-02-20T16:14:58.576Z,10.88
2019-02-20T16:17:31.249Z,10.73
2019-02-20T16:20:03.898Z,10.65
2019-02-20T16:22:36.912Z,10.53
2019-02-20T16:25:12.159Z,10.44
2019-02-20T16:27:47.472Z,10.31
2019-02-20T16:30:19.363Z,10.21
2019-02-20T16:32:52.011Z,9.97
2019-02-20T16:35:24.720Z,9.68
2019-02-20T16:37:57.439Z,9.46
2019-02-20T16:40:30.067Z,9.30
2019-02-20T16:43:03.847Z,9.10
2019-02-20T16:45:36.815Z,8.90
2019-02-20T16:48:09.506Z,8.84
2019-02-20T16:50:42.161Z,8.73
2019-02-20T16:53:14.798Z,8.37
2019-02-20T16:55:47.425Z,8.17
2019-02-20T16:58:20.560Z,7.82
2019-02-20T17:00:54.353Z,7.57
2019-02-20T17:03:27.148Z,7.51
2019-02-20T17:05:59.839Z,7.31
2019-02-20T17:08:32.458Z,7.14
2019-02-20T17:11:05.030Z,6.91
2019-02-20T17:13:39.519Z,6.63
2019-02-20T17:16:12.196Z,6.52
2019-02-20T17:18:44.865Z,6.36
2019-02-20T17:21:18.336Z,6.19
2019-02-20T17:23:51.124Z,6.03
2019-02-20T17:26:23.782Z,5.86
2019-02-20T17:28:56.772Z,5.65
2019-02-20T17:31:29.487Z,5.47
2019-02-20T17:34:02.449Z,5.32
2019-02-20T17:36:35.078Z,5.25
2019-02-20T17:39:08.616Z,5.16
2019-02-20T17:41:41.252Z,5.09
2019-02-20T17:44:13.910Z,5.03
2019-02-20T17:46:46.568Z,4.98
2019-02-20T17:49:19.298Z,4.94
2019-02-20T17:51:51.877Z,4.77
2019-02-20T17:54:24.593Z,4.75
2019-02-20T17:56:57.713Z,4.68
2019-02-20T17:59:30.366Z,4.59
2019-02-20T18:02:03.157Z,4.59
2019-02-20T18:04:36.066Z,4.48
2019-02-20T18:07:08.868Z,4.32
2019-02-20T18:09:41.417Z,4.17
2019-02-20T18:12:14.100Z,4.13
2019-02-20T18:14:46.709Z,4.09
2019-02-20T18:17:19.375Z,4.10
2019-02-20T18:19:51.978Z,4.06
2019-02-20T18:22:24.728Z,3.90
2019-02-20T18:24:57.375Z,3.78
2019-02-20T18:27:30.140Z,3.83
2019-02-20T18:30:02.830Z,3.78
2019-02-20T18:32:37.216Z,3.70
2019-02-20T18:35:11.160Z,3.58
2019-02-20T18:37:43.746Z,3.56
2019-02-20T18:40:17.168Z,3.51
2019-02-20T18:42:49.756Z,3.46
2019-02-20T18:45:22.807Z,3.51
2019-02-20T18:47:55.913Z,3.60
2019-02-20T18:50:28.549Z,3.76
2019-02-20T18:53:01.189Z,3.75
2019-02-20T18:55:33.821Z,3.80
2019-02-20T18:58:06.681Z,3.74
2019-02-20T19:00:39.339Z,3.64
2019-02-20T19:03:11.912Z,3.53
2019-02-20T19:05:44.675Z,3.37
2019-02-20T19:08:43.118Z,3.07
2019-02-20T19:12:01.603Z,2.90
2019-02-20T19:15:13.316Z,2.89
2019-02-20T19:18:41.536Z,3.01
2019-02-20T19:22:21.799Z,3.04
2019-02-20T19:26:03.207Z,2.88
2019-02-20T19:29:07.343Z,2.67
2019-02-20T19:32:51.648Z,2.72
2019-02-20T19:36:05.155Z,2.78
2019-02-20T19:39:04.775Z,2.82
2019-02-20T19:42:19.316Z,2.85
2019-02-20T19:45:34.680Z,2.78
2019-02-20T19:49:19.583Z,2.80
2019-02-20T19:52:50.031Z,3.05
2019-02-20T19:56:07.688Z,2.75
2019-02-20T19:59:29.155Z,2.52
2019-02-20T20:02:45.078Z,2.37
2019-02-20T20:06:15.432Z,2.30
2019-02-20T20:10:09.814Z,2.43
2019-02-20T20:13:35.606Z,2.51
2019-02-20T20:16:30.680Z,2.55
2019-02-20T20:19:45.989Z,2.58
2019-02-20T20:23:15.879Z,2.34
2019-02-20T20:26:33.637Z,2.21
2019-02-20T20:30:05.064Z,2.21
2019-02-20T20:33:33.250Z,2.30
2019-02-20T20:36:53.074Z,2.41
2019-02-20T20:40:43.781Z,2.37
2019-02-20T20:43:58.354Z,2.11
2019-02-20T20:47:08.204Z,2.56
2019-02-20T20:50:45.617Z,2.38
2019-02-20T20:54:26.417Z,2.70
2019-02-20T20:57:28.310Z,2.79
2019-02-20T21:00:45.599Z,2.82
2019-02-20T21:03:19.174Z,2.64
2019-02-20T21:06:39.854Z,2.35
2019-02-20T21:10:07.815Z,2.15
2019-02-20T21:13:34.794Z,2.08
2019-02-20T21:17:21.201Z,2.11
2019-02-20T21:20:54.110Z,2.21
2019-02-20T21:24:23.160Z,2.29
2019-02-20T21:27:51.360Z,1.72
2019-02-20T21:31:22.001Z,1.77
2019-02-20T21:34:59.628Z,1.96
2019-02-20T21:38:36.770Z,1.96
2019-02-20T21:41:57.282Z,1.65
2019-02-20T21:45:25.327Z,1.50
2019-02-20T21:48:58.498Z,1.59
2019-02-20T21:52:11.334Z,1.71
2019-02-20T21:55:31.877Z,1.72
2019-02-20T21:58:55.863Z,1.60
2019-02-20T22:02:12.673Z,1.71
2019-02-20T22:05:48.322Z,1.69
2019-02-20T22:08:50.792Z,1.42
2019-02-20T22:12:03.195Z,1.32
2019-02-20T22:15:26.931Z,1.26
2019-02-20T22:18:42.597Z,1.14
2019-02-20T22:22:10.282Z,1.13
2019-02-20T22:25:30.185Z,1.18
2019-02-20T22:28:44.258Z,1.24
2019-02-20T22:31:50.002Z,1.32
2019-02-20T22:35:09.958Z,1.33
2019-02-20T22:38:08.482Z,1.48
2019-02-20T22:41:57.604Z,1.49
2019-02-20T22:45:44.180Z,1.55
2019-02-20T22:49:12.331Z,1.49
2019-02-20T22:52:26.579Z,1.80
2019-02-20T22:55:50.571Z,1.75
2019-02-20T22:58:49.982Z,1.45
2019-02-20T23:02:19.970Z,1.23
2019-02-20T23:05:41.829Z,1.24
2019-02-20T23:08:52.568Z,1.29
2019-02-20T23:12:13.047Z,1.28
2019-02-20T23:14:58.867Z,1.25
2019-02-20T23:17:31.484Z,1.33
2019-02-20T23:20:04.250Z,1.34
2019-02-20T23:22:37.016Z,1.22
2019-02-20T23:25:09.670Z,1.10
2019-02-20T23:27:42.348Z,1.09
2019-02-20T23:30:15.013Z,1.15
2019-02-20T23:32:47.533Z,1.21
2019-02-20T23:35:20.233Z,1.29
2019-02-20T23:37:52.880Z,1.18
2019-02-20T23:40:27.631Z,1.01
2019-02-20T23:42:59.884Z,0.80
2019-02-20T23:45:32.610Z,0.84
2019-02-20T23:48:05.289Z,1.05
2019-02-20T23:50:38.994Z,1.23
2019-02-20T23:53:11.627Z,1.35
2019-02-20T23:55:44.439Z,1.21
2019-02-20T23:58:17.111Z,0.99
